Time;durP1;ratioP1;P1;durP2;ratioP2;P2;SDS_P1;SDS_P2;PMS_P1;PMS_P2;Temp;Humidity;BMP_temperature;BMP_pressure;BME280_temperature;BME280_humidity;BME280_pressure;Samples;Min_cycle;Max_cycle;Signal;HPM_P1;HPM_P2
2022/09/24 00:01:55;;;;;;;45.33;24.80;;;;;;;;;;5051900;28;20243;-82
2022/09/24 00:04:25;;;;;;;45.90;26.17;;;;;;;;;;5046462;28;20208;-82
2022/09/24 00:06:53;;;;;;;48.47;29.40;;;;;;;;;;5044562;28;20216;-82
2022/09/24 00:09:22;;;;;;;48.53;31.63;;;;;;;;;;5051486;28;20250;-82
2022/09/24 00:11:52;;;;;;;49.77;27.80;;;;;;;;;;5032809;28;20219;-82
2022/09/24 00:14:22;;;;;;;50.00;31.40;;;;;;;;;;5034029;28;20283;-82
2022/09/24 00:16:50;;;;;;;53.13;27.93;;;;;;;;;;5032919;28;20282;-82
2022/09/24 00:19:18;;;;;;;39.57;21.23;;;;;;;;;;5051383;28;20197;-82
2022/09/24 00:21:47;;;;;;;41.13;21.03;;;;;;;;;;5035795;28;20286;-82
2022/09/24 00:26:48;;;;;;;39.50;22.90;;;;;;;;;;5032217;28;20240;-82
2022/09/24 00:27:05;;;;;;;26.57;17.27;;;;;;;;;;5021192;28;20255;-82
2022/09/24 00:29:35;;;;;;;46.57;24.17;;;;;;;;;;5037537;28;20209;-82
2022/09/24 00:32:04;;;;;;;38.67;20.73;;;;;;;;;;5045542;28;20205;-82
2022/09/24 00:34:33;;;;;;;41.77;24.83;;;;;;;;;;5044963;28;20219;-82
2022/09/24 00:37:01;;;;;;;35.23;19.60;;;;;;;;;;5052186;28;20212;-82
2022/09/24 00:39:29;;;;;;;58.20;29.73;;;;;;;;;;5051801;28;20261;-82
2022/09/24 00:41:58;;;;;;;13.13;7.30;;;;;;;;;;5025748;28;20193;-82
2022/09/24 00:44:53;;;;;;;40.37;25.17;;;;;;;;;;5051025;28;20205;-82
2022/09/24 00:47:36;;;;;;;59.80;30.03;;;;;;;;;;5015564;28;20200;-82
2022/09/24 00:50:11;;;;;;;39.20;20.60;;;;;;;;;;5044705;28;20211;-82
2022/09/24 00:52:41;;;;;;;34.43;18.43;;;;;;;;;;5027494;28;20215;-82
2022/09/24 00:55:10;;;;;;;39.37;17.43;;;;;;;;;;5050429;28;20225;-82
2022/09/24 00:57:39;;;;;;;48.00;26.23;;;;;;;;;;5050951;28;20216;-82
2022/09/24 01:00:10;;;;;;;37.67;18.53;;;;;;;;;;5041073;28;20241;-82
2022/09/24 01:02:39;;;;;;;16.90;10.07;;;;;;;;;;5033470;28;20287;-82
2022/09/24 01:05:10;;;;;;;24.70;14.37;;;;;;;;;;5034914;28;20224;-82
2022/09/24 01:07:38;;;;;;;1.93;1.90;;;;;;;;;;5033022;28;20236;-82
2022/09/24 01:10:07;;;;;;;1.53;1.53;;;;;;;;;;5037413;28;20226;-82
2022/09/24 01:12:39;;;;;;;17.83;10.77;;;;;;;;;;5051900;28;20224;-82
2022/09/24 01:15:15;;;;;;;16.43;11.67;;;;;;;;;;5038256;28;20204;-82
2022/09/24 01:17:47;;;;;;;18.77;11.53;;;;;;;;;;5052404;28;20311;-82
2022/09/24 01:20:25;;;;;;;29.97;16.67;;;;;;;;;;5031692;28;20200;-82
2022/09/24 01:23:02;;;;;;;31.63;17.67;;;;;;;;;;5047350;28;20238;-82
2022/09/24 01:25:37;;;;;;;15.03;9.83;;;;;;;;;;5051877;28;20220;-82
2022/09/24 01:28:17;;;;;;;16.57;11.50;;;;;;;;;;5034736;28;20239;-82
2022/09/24 01:30:48;;;;;;;28.67;17.10;;;;;;;;;;5045631;28;20195;-82
2022/09/24 01:33:19;;;;;;;32.70;17.43;;;;;;;;;;5032033;28;20226;-82
2022/09/24 01:35:49;;;;;;;37.03;20.00;;;;;;;;;;5044256;28;20274;-82
2022/09/24 01:38:19;;;;;;;33.57;19.40;;;;;;;;;;5040697;28;20247;-82
2022/09/24 01:40:48;;;;;;;22.20;13.40;;;;;;;;;;5037965;28;20198;-82
2022/09/24 01:43:18;;;;;;;28.63;17.90;;;;;;;;;;5052326;28;20263;-82
2022/09/24 01:45:47;;;;;;;12.37;7.43;;;;;;;;;;5054033;28;20193;-83
2022/09/24 01:48:20;;;;;;;14.67;9.57;;;;;;;;;;5054480;28;20552;-82
2022/09/24 01:50:52;;;;;;;3.57;2.83;;;;;;;;;;5037930;28;20217;-82
2022/09/24 01:53:22;;;;;;;10.83;8.47;;;;;;;;;;5048122;28;20231;-82
2022/09/24 01:55:51;;;;;;;27.03;15.03;;;;;;;;;;5041468;28;20197;-82
2022/09/24 01:58:22;;;;;;;9.47;6.23;;;;;;;;;;5045787;28;20317;-82
2022/09/24 02:00:54;;;;;;;8.57;6.80;;;;;;;;;;5022784;28;20316;-82
2022/09/24 02:03:25;;;;;;;11.07;8.67;;;;;;;;;;5047632;28;20257;-82
2022/09/24 02:05:57;;;;;;;9.23;6.53;;;;;;;;;;5043871;28;20232;-82
2022/09/24 02:08:29;;;;;;;0.73;0.73;;;;;;;;;;5037919;28;20209;-82
2022/09/24 02:11:01;;;;;;;0.30;0.30;;;;;;;;;;5034508;28;20193;-82
2022/09/24 02:13:32;;;;;;;1.13;1.13;;;;;;;;;;5034751;28;20301;-82
2022/09/24 02:16:03;;;;;;;2.23;2.13;;;;;;;;;;5034937;28;20205;-82
2022/09/24 02:18:34;;;;;;;0.40;0.40;;;;;;;;;;5047812;28;20284;-82
2022/09/24 02:21:04;;;;;;;1.43;1.43;;;;;;;;;;5035760;28;20292;-82
2022/09/24 02:23:36;;;;;;;13.40;8.87;;;;;;;;;;5035588;28;20244;-82
2022/09/24 02:26:06;;;;;;;9.27;8.37;;;;;;;;;;5047250;28;20236;-82
2022/09/24 02:28:34;;;;;;;10.40;6.17;;;;;;;;;;5043080;28;20313;-82
2022/09/24 02:31:06;;;;;;;1.10;1.10;;;;;;;;;;5050726;28;20202;-82
2022/09/24 02:36:24;;;;;;;11.17;6.20;;;;;;;;;;5034127;28;20210;-82
2022/09/24 02:38:53;;;;;;;5.80;4.57;;;;;;;;;;5047261;28;20218;-82
2022/09/24 02:41:25;;;;;;;12.57;7.10;;;;;;;;;;5035728;28;20206;-82
2022/09/24 02:43:54;;;;;;;7.63;5.60;;;;;;;;;;5046091;28;20234;-82
2022/09/24 02:46:24;;;;;;;5.53;4.23;;;;;;;;;;5067429;28;20196;-81
2022/09/24 02:48:56;;;;;;;0.30;0.30;;;;;;;;;;5051961;28;20238;-81
2022/09/24 02:51:24;;;;;;;0.40;0.40;;;;;;;;;;5043446;28;20207;-82
2022/09/24 02:53:52;;;;;;;0.40;0.40;;;;;;;;;;5039632;28;20200;-82
2022/09/24 02:56:21;;;;;;;0.37;0.37;;;;;;;;;;5056928;28;20231;-82
2022/09/24 02:58:49;;;;;;;0.40;0.40;;;;;;;;;;5068089;28;20220;-82
2022/09/24 03:01:18;;;;;;;0.40;0.40;;;;;;;;;;5043658;28;20221;-82
2022/09/24 03:03:48;;;;;;;0.40;0.40;;;;;;;;;;5035708;28;20284;-81
2022/09/24 03:06:16;;;;;;;0.40;0.40;;;;;;;;;;5035922;28;20217;-81
2022/09/24 03:08:45;;;;;;;0.40;0.40;;;;;;;;;;5049515;28;20200;-81
2022/09/24 03:11:14;;;;;;;0.40;0.40;;;;;;;;;;5040785;28;20319;-81
2022/09/24 03:13:46;;;;;;;0.40;0.40;;;;;;;;;;5036873;28;20254;-81
2022/09/24 03:16:14;;;;;;;0.40;0.40;;;;;;;;;;5038343;28;20198;-81
2022/09/24 03:18:43;;;;;;;0.40;0.40;;;;;;;;;;5036190;28;20216;-81
2022/09/24 03:21:13;;;;;;;0.40;0.40;;;;;;;;;;5036148;28;20283;-81
2022/09/24 03:23:41;;;;;;;0.40;0.40;;;;;;;;;;5034229;28;20238;-81
2022/09/24 03:26:10;;;;;;;0.40;0.40;;;;;;;;;;5047949;28;20238;-80
2022/09/24 03:28:39;;;;;;;0.40;0.40;;;;;;;;;;5044076;28;20204;-80
2022/09/24 03:31:07;;;;;;;0.40;0.40;;;;;;;;;;5036299;28;20200;-80
2022/09/24 03:33:37;;;;;;;0.40;0.40;;;;;;;;;;5050590;28;20217;-81
2022/09/24 03:36:06;;;;;;;0.40;0.40;;;;;;;;;;5031558;28;20286;-81
2022/09/24 03:38:37;;;;;;;0.40;0.40;;;;;;;;;;5032817;28;20245;-80
2022/09/24 03:41:06;;;;;;;0.40;0.40;;;;;;;;;;5033316;28;20211;-80
2022/09/24 03:43:34;;;;;;;0.40;0.40;;;;;;;;;;5045209;28;20293;-81
2022/09/24 03:46:04;;;;;;;0.40;0.40;;;;;;;;;;5049822;28;20231;-81
2022/09/24 03:48:34;;;;;;;0.40;0.40;;;;;;;;;;5046894;28;20215;-81
2022/09/24 03:51:04;;;;;;;0.40;0.40;;;;;;;;;;5027027;28;20208;-81
2022/09/24 03:53:33;;;;;;;0.40;0.40;;;;;;;;;;5051700;28;20203;-81
2022/09/24 03:56:03;;;;;;;0.40;0.40;;;;;;;;;;5032702;28;20197;-81
2022/09/24 03:58:31;;;;;;;0.40;0.40;;;;;;;;;;5034305;28;20242;-81
2022/09/24 04:00:59;;;;;;;0.33;0.33;;;;;;;;;;5043500;28;20228;-81
2022/09/24 04:03:28;;;;;;;0.30;0.30;;;;;;;;;;5021091;28;20255;-81
2022/09/24 04:05:56;;;;;;;0.40;0.40;;;;;;;;;;5040983;28;20296;-81
2022/09/24 04:08:24;;;;;;;0.40;0.40;;;;;;;;;;5026119;28;20430;-81
2022/09/24 04:10:54;;;;;;;0.40;0.40;;;;;;;;;;5051444;28;20195;-81
2022/09/24 04:13:23;;;;;;;0.33;0.33;;;;;;;;;;5067403;28;20200;-81
2022/09/24 04:15:52;;;;;;;0.40;0.40;;;;;;;;;;5052298;28;20239;-81
2022/09/24 04:18:21;;;;;;;0.40;0.40;;;;;;;;;;5051205;28;20216;-81
2022/09/24 04:20:50;;;;;;;0.30;0.30;;;;;;;;;;5039265;28;20277;-81
2022/09/24 04:23:18;;;;;;;0.40;0.40;;;;;;;;;;5032778;28;20227;-81
2022/09/24 04:25:46;;;;;;;0.40;0.40;;;;;;;;;;5044183;28;20214;-81
2022/09/24 04:28:16;;;;;;;0.40;0.40;;;;;;;;;;5052602;28;20206;-81
2022/09/24 04:30:46;;;;;;;0.40;0.40;;;;;;;;;;5039046;28;20315;-81
2022/09/24 04:33:14;;;;;;;0.40;0.40;;;;;;;;;;5036543;28;20197;-81
2022/09/24 04:35:43;;;;;;;0.40;0.40;;;;;;;;;;5044961;28;20197;-81
2022/09/24 04:38:11;;;;;;;0.97;0.97;;;;;;;;;;5033703;28;20208;-81
2022/09/24 04:40:40;;;;;;;0.40;0.40;;;;;;;;;;5044146;28;20298;-81
2022/09/24 04:43:08;;;;;;;0.40;0.40;;;;;;;;;;5031756;28;20201;-81
2022/09/24 04:45:38;;;;;;;0.40;0.40;;;;;;;;;;5046068;28;20226;-81
2022/09/24 04:48:08;;;;;;;0.40;0.40;;;;;;;;;;5041849;28;20238;-81
2022/09/24 04:50:37;;;;;;;0.40;0.40;;;;;;;;;;5063719;28;20222;-81
2022/09/24 04:53:13;;;;;;;0.40;0.40;;;;;;;;;;5032480;28;20210;-81
2022/09/24 04:55:41;;;;;;;0.40;0.40;;;;;;;;;;5050071;28;20217;-82
2022/09/24 04:58:09;;;;;;;0.40;0.40;;;;;;;;;;5052687;28;20252;-81
2022/09/24 05:00:38;;;;;;;0.40;0.40;;;;;;;;;;5045312;28;20261;-81
2022/09/24 05:03:06;;;;;;;0.40;0.40;;;;;;;;;;5045120;28;20301;-81
2022/09/24 05:05:36;;;;;;;0.40;0.40;;;;;;;;;;5032021;28;20285;-82
2022/09/24 05:08:05;;;;;;;0.40;0.40;;;;;;;;;;5031680;28;20231;-82
2022/09/24 05:10:33;;;;;;;0.40;0.40;;;;;;;;;;5020456;28;20209;-82
2022/09/24 05:13:01;;;;;;;0.37;0.37;;;;;;;;;;5031881;28;20254;-82
2022/09/24 05:15:30;;;;;;;0.40;0.40;;;;;;;;;;5031792;28;20233;-82
2022/09/24 05:17:58;;;;;;;0.40;0.40;;;;;;;;;;5046225;28;20267;-82
2022/09/24 05:20:27;;;;;;;0.40;0.40;;;;;;;;;;5038048;28;20297;-82
2022/09/24 05:22:57;;;;;;;0.40;0.40;;;;;;;;;;5052183;28;20242;-82
2022/09/24 05:25:25;;;;;;;0.40;0.40;;;;;;;;;;5044445;28;20208;-83
2022/09/24 05:27:53;;;;;;;0.40;0.40;;;;;;;;;;5054244;28;20277;-83
2022/09/24 05:30:22;;;;;;;0.40;0.40;;;;;;;;;;5054846;28;20196;-83
2022/09/24 05:32:51;;;;;;;0.40;0.40;;;;;;;;;;5067719;28;20230;-83
2022/09/24 05:35:20;;;;;;;0.40;0.40;;;;;;;;;;5045808;28;20207;-83
2022/09/24 05:37:48;;;;;;;0.40;0.40;;;;;;;;;;5041239;28;20204;-83
2022/09/24 05:43:05;;;;;;;0.40;0.40;;;;;;;;;;5023575;28;20184;-83
2022/09/24 05:45:33;;;;;;;0.40;0.40;;;;;;;;;;5036778;28;20218;-83
2022/09/24 05:48:02;;;;;;;0.40;0.40;;;;;;;;;;5071532;28;20253;-83
2022/09/24 05:50:31;;;;;;;0.40;0.40;;;;;;;;;;5069285;28;20289;-84
2022/09/24 05:53:00;;;;;;;0.40;0.40;;;;;;;;;;5045508;28;20210;-84
2022/09/24 05:55:29;;;;;;;0.40;0.40;;;;;;;;;;5053925;28;20294;-83
2022/09/24 05:58:03;;;;;;;0.40;0.40;;;;;;;;;;5054287;28;20285;-83
2022/09/24 06:00:32;;;;;;;0.40;0.40;;;;;;;;;;5053610;28;20207;-83
2022/09/24 06:03:05;;;;;;;0.30;0.30;;;;;;;;;;5032102;28;20291;-84
2022/09/24 06:05:34;;;;;;;0.40;0.40;;;;;;;;;;5042058;28;20194;-83
2022/09/24 06:08:02;;;;;;;0.40;0.40;;;;;;;;;;5045622;28;20205;-83
2022/09/24 06:10:32;;;;;;;0.40;0.40;;;;;;;;;;5052546;28;20204;-83
2022/09/24 06:13:01;;;;;;;0.40;0.40;;;;;;;;;;5049158;28;20206;-83
2022/09/24 06:15:29;;;;;;;0.40;0.40;;;;;;;;;;5070274;28;20227;-83
2022/09/24 06:17:58;;;;;;;0.40;0.40;;;;;;;;;;5052205;28;20211;-83
2022/09/24 06:20:26;;;;;;;0.40;0.40;;;;;;;;;;5046952;28;20319;-83
2022/09/24 06:22:56;;;;;;;0.30;0.30;;;;;;;;;;5065574;28;20207;-83
2022/09/24 06:25:24;;;;;;;0.40;0.40;;;;;;;;;;5062254;28;20281;-83
2022/09/24 06:27:59;;;;;;;0.40;0.40;;;;;;;;;;5034247;28;20256;-83
2022/09/24 06:30:28;;;;;;;0.40;0.40;;;;;;;;;;5033932;28;20209;-83
2022/09/24 06:33:01;;;;;;;0.40;0.40;;;;;;;;;;5034124;28;20204;-84
2022/09/24 06:35:30;;;;;;;0.40;0.40;;;;;;;;;;5047522;28;20214;-83
2022/09/24 06:37:58;;;;;;;0.40;0.40;;;;;;;;;;5034690;28;20230;-83
2022/09/24 06:40:26;;;;;;;0.40;0.40;;;;;;;;;;5034132;28;20235;-83
2022/09/24 06:43:04;;;;;;;0.40;0.40;;;;;;;;;;5022066;28;20226;-84
2022/09/24 06:45:32;;;;;;;0.30;0.30;;;;;;;;;;5033834;28;20234;-83
2022/09/24 06:48:01;;;;;;;0.40;0.40;;;;;;;;;;5033845;28;20207;-83
2022/09/24 06:50:31;;;;;;;0.40;0.40;;;;;;;;;;5035224;28;20291;-84
2022/09/24 06:52:59;;;;;;;0.30;0.30;;;;;;;;;;5034217;28;20275;-83
2022/09/24 06:55:28;;;;;;;0.40;0.40;;;;;;;;;;5051564;28;20234;-83
2022/09/24 06:58:04;;;;;;;0.40;0.40;;;;;;;;;;5054522;28;20268;-83
2022/09/24 07:00:32;;;;;;;0.40;0.40;;;;;;;;;;5039974;28;20218;-83
2022/09/24 07:03:00;;;;;;;0.33;0.33;;;;;;;;;;5057784;28;20227;-83
2022/09/24 07:05:29;;;;;;;0.40;0.40;;;;;;;;;;5033845;28;20262;-83
2022/09/24 07:07:57;;;;;;;0.40;0.40;;;;;;;;;;5034571;28;20245;-83
2022/09/24 07:10:26;;;;;;;0.40;0.40;;;;;;;;;;5053133;28;20227;-83
2022/09/24 07:12:55;;;;;;;0.40;0.40;;;;;;;;;;5069303;28;20210;-83
2022/09/24 07:15:25;;;;;;;0.30;0.30;;;;;;;;;;5033912;28;20195;-83
2022/09/24 07:17:57;;;;;;;0.40;0.40;;;;;;;;;;5047294;28;20211;-83
2022/09/24 07:20:27;;;;;;;0.30;0.30;;;;;;;;;;5061854;28;20219;-83
2022/09/24 07:22:57;;;;;;;0.40;0.40;;;;;;;;;;5064721;28;20219;-83
2022/09/24 07:25:26;;;;;;;0.40;0.40;;;;;;;;;;5053284;28;20203;-83
2022/09/24 07:27:54;;;;;;;0.40;0.40;;;;;;;;;;5037754;28;20205;-83
2022/09/24 07:30:24;;;;;;;0.40;0.40;;;;;;;;;;5043260;28;20268;-83
2022/09/24 07:32:55;;;;;;;0.40;0.40;;;;;;;;;;5052524;28;20299;-83
2022/09/24 07:35:23;;;;;;;0.40;0.40;;;;;;;;;;5043255;28;20205;-83
2022/09/24 07:37:58;;;;;;;0.40;0.40;;;;;;;;;;5032477;28;20289;-83
2022/09/24 07:40:26;;;;;;;0.40;0.40;;;;;;;;;;5046497;28;20229;-83
2022/09/24 07:42:55;;;;;;;0.30;0.30;;;;;;;;;;5032809;28;20197;-83
2022/09/24 07:45:26;;;;;;;0.40;0.40;;;;;;;;;;5033742;28;20204;-83
2022/09/24 07:48:01;;;;;;;0.40;0.40;;;;;;;;;;5036999;28;20241;-83
2022/09/24 07:50:31;;;;;;;0.40;0.40;;;;;;;;;;5022129;28;20288;-84
2022/09/24 07:53:00;;;;;;;0.40;0.40;;;;;;;;;;5035663;28;20210;-84
2022/09/24 07:55:28;;;;;;;0.30;0.30;;;;;;;;;;5030005;28;20448;-84
2022/09/24 07:57:57;;;;;;;0.40;0.40;;;;;;;;;;5021870;28;20236;-83
2022/09/24 08:00:26;;;;;;;0.40;0.40;;;;;;;;;;5031319;28;20245;-83
2022/09/24 08:02:55;;;;;;;0.37;0.37;;;;;;;;;;5044996;28;20216;-83
2022/09/24 08:05:24;;;;;;;0.40;0.40;;;;;;;;;;5033468;28;20278;-83
2022/09/24 08:07:53;;;;;;;0.30;0.30;;;;;;;;;;5035379;28;20219;-83
2022/09/24 08:10:21;;;;;;;0.40;0.40;;;;;;;;;;5020883;28;20324;-83
2022/09/24 08:12:50;;;;;;;0.30;0.30;;;;;;;;;;5051672;28;20221;-83
2022/09/24 08:15:22;;;;;;;0.30;0.30;;;;;;;;;;5046578;28;20221;-82
2022/09/24 08:17:52;;;;;;;0.30;0.30;;;;;;;;;;5025030;28;20312;-82
2022/09/24 08:20:22;;;;;;;0.37;0.37;;;;;;;;;;5031567;28;20292;-82
2022/09/24 08:22:50;;;;;;;0.30;0.30;;;;;;;;;;5037450;28;20278;-82
2022/09/24 08:25:19;;;;;;;0.30;0.30;;;;;;;;;;5022591;28;20252;-82
2022/09/24 08:27:47;;;;;;;0.30;0.30;;;;;;;;;;5028059;28;20236;-82
2022/09/24 08:30:16;;;;;;;0.30;0.30;;;;;;;;;;5028569;28;20312;-82
2022/09/24 08:32:47;;;;;;;0.30;0.30;;;;;;;;;;5037773;28;20285;-82
2022/09/24 08:35:17;;;;;;;0.40;0.40;;;;;;;;;;5018461;28;20236;-82
2022/09/24 08:37:46;;;;;;;0.40;0.40;;;;;;;;;;5042121;28;20252;-82
2022/09/24 08:40:18;;;;;;;0.30;0.30;;;;;;;;;;5029223;28;20309;-82
2022/09/24 08:42:50;;;;;;;0.40;0.40;;;;;;;;;;5034628;28;20226;-82
2022/09/24 08:48:07;;;;;;;0.40;0.40;;;;;;;;;;5039214;28;20276;-82
2022/09/24 08:50:38;;;;;;;0.40;0.40;;;;;;;;;;5027572;28;20313;-82
2022/09/24 08:53:11;;;;;;;0.40;0.40;;;;;;;;;;5033669;28;20225;-82
2022/09/24 08:55:41;;;;;;;0.30;0.30;;;;;;;;;;5024530;28;20222;-82
2022/09/24 08:58:21;;;;;;;0.30;0.30;;;;;;;;;;5034699;28;20220;-82
2022/09/24 09:00:52;;;;;;;0.40;0.40;;;;;;;;;;5025817;28;20237;-81
2022/09/24 09:03:24;;;;;;;0.40;0.40;;;;;;;;;;5020781;28;20281;-82
2022/09/24 09:05:55;;;;;;;0.40;0.40;;;;;;;;;;5020310;28;20217;-82
2022/09/24 09:08:29;;;;;;;0.30;0.30;;;;;;;;;;5020163;28;20230;-82
2022/09/24 09:11:21;;;;;;;0.40;0.40;;;;;;;;;;5023308;28;20219;-81
2022/09/24 09:13:52;;;;;;;0.40;0.40;;;;;;;;;;5019673;28;20229;-82
2022/09/24 09:16:24;;;;;;;0.40;0.40;;;;;;;;;;5018655;28;20322;-82
2022/09/24 09:18:54;;;;;;;0.40;0.40;;;;;;;;;;5020643;28;20226;-82
2022/09/24 09:21:27;;;;;;;0.40;0.40;;;;;;;;;;5024634;28;20226;-82
2022/09/24 09:23:56;;;;;;;0.30;0.30;;;;;;;;;;5037292;28;20319;-82
2022/09/24 09:26:26;;;;;;;0.30;0.30;;;;;;;;;;5025167;28;20260;-81
2022/09/24 09:28:56;;;;;;;0.40;0.40;;;;;;;;;;5038364;28;20199;-82
2022/09/24 09:31:28;;;;;;;0.33;0.33;;;;;;;;;;5029038;28;20202;-81
2022/09/24 09:34:03;;;;;;;0.30;0.30;;;;;;;;;;5026444;28;20222;-82
2022/09/24 09:36:39;;;;;;;0.40;0.40;;;;;;;;;;5029841;28;20201;-82
2022/09/24 09:39:16;;;;;;;0.40;0.40;;;;;;;;;;5058482;28;20308;-82
2022/09/24 09:41:50;;;;;;;0.40;0.40;;;;;;;;;;5061482;28;20225;-82
2022/09/24 09:44:21;;;;;;;0.40;0.40;;;;;;;;;;5052584;28;20237;-81
2022/09/24 09:46:52;;;;;;;0.40;0.40;;;;;;;;;;5071661;28;20202;-81
2022/09/24 09:49:21;;;;;;;0.30;0.30;;;;;;;;;;5071045;28;20222;-82
2022/09/24 09:51:55;;;;;;;0.30;0.30;;;;;;;;;;5041810;28;20199;-82
2022/09/24 09:54:23;;;;;;;0.40;0.40;;;;;;;;;;5023462;28;20226;-82
2022/09/24 09:56:51;;;;;;;0.30;0.30;;;;;;;;;;5049114;28;20206;-82
2022/09/24 09:59:21;;;;;;;0.30;0.30;;;;;;;;;;5054433;28;20265;-81
2022/09/24 10:01:56;;;;;;;0.40;0.40;;;;;;;;;;5053013;28;20247;-81
2022/09/24 10:04:28;;;;;;;0.40;0.40;;;;;;;;;;5041437;28;20225;-81
2022/09/24 10:07:09;;;;;;;0.30;0.30;;;;;;;;;;5057166;28;20230;-81
2022/09/24 10:09:38;;;;;;;0.40;0.40;;;;;;;;;;5055121;28;20209;-81
2022/09/24 10:12:07;;;;;;;0.40;0.40;;;;;;;;;;5047589;28;20293;-81
2022/09/24 10:14:36;;;;;;;0.40;0.40;;;;;;;;;;5046018;28;20320;-81
2022/09/24 10:17:05;;;;;;;0.30;0.30;;;;;;;;;;5035493;28;20236;-81
2022/09/24 10:19:35;;;;;;;0.40;0.40;;;;;;;;;;5034442;28;20256;-81
2022/09/24 10:22:11;;;;;;;0.40;0.40;;;;;;;;;;5050751;28;20218;-81
2022/09/24 10:24:42;;;;;;;0.40;0.40;;;;;;;;;;5020814;28;20297;-81
2022/09/24 10:27:11;;;;;;;0.40;0.40;;;;;;;;;;5046024;28;20265;-81
2022/09/24 10:32:28;;;;;;;0.30;0.30;;;;;;;;;;5055077;28;20210;-81
2022/09/24 10:34:57;;;;;;;0.40;0.40;;;;;;;;;;5046407;28;20207;-81
2022/09/24 10:37:27;;;;;;;0.40;0.40;;;;;;;;;;5034651;28;20203;-81
2022/09/24 10:39:59;;;;;;;0.40;0.40;;;;;;;;;;5043259;28;20288;-81
2022/09/24 10:42:28;;;;;;;1.73;1.73;;;;;;;;;;5042088;28;20227;-81
2022/09/24 10:44:59;;;;;;;0.50;0.50;;;;;;;;;;5069968;28;20210;-82
2022/09/24 10:47:28;;;;;;;0.30;0.30;;;;;;;;;;5052057;28;20218;-81
2022/09/24 10:50:08;;;;;;;0.30;0.30;;;;;;;;;;5034199;28;20306;-81
2022/09/24 10:52:41;;;;;;;0.30;0.30;;;;;;;;;;5047665;28;20278;-81
2022/09/24 10:55:17;;;;;;;0.30;0.30;;;;;;;;;;5047379;28;20207;-81
2022/09/24 10:57:51;;;;;;;0.40;0.40;;;;;;;;;;5045498;28;20298;-81
2022/09/24 11:00:20;;;;;;;0.30;0.30;;;;;;;;;;5046043;28;20286;-81
2022/09/24 11:03:00;;;;;;;0.40;0.40;;;;;;;;;;5044239;28;20222;-82
2022/09/24 11:05:31;;;;;;;0.30;0.30;;;;;;;;;;5053578;28;20234;-82
2022/09/24 11:08:05;;;;;;;0.30;0.30;;;;;;;;;;5040326;28;20195;-82
2022/09/24 11:10:44;;;;;;;0.30;0.30;;;;;;;;;;5022413;28;20204;-81
2022/09/24 11:13:15;;;;;;;0.40;0.40;;;;;;;;;;5038006;28;20197;-81
2022/09/24 11:15:57;;;;;;;0.30;0.30;;;;;;;;;;5043621;28;20199;-81
2022/09/24 11:18:31;;;;;;;0.37;0.37;;;;;;;;;;5039548;28;20205;-82
2022/09/24 11:21:04;;;;;;;0.40;0.40;;;;;;;;;;5051345;28;20241;-82
2022/09/24 11:23:50;;;;;;;0.40;0.40;;;;;;;;;;5028537;28;20345;-81
2022/09/24 11:26:25;;;;;;;0.40;0.40;;;;;;;;;;5036273;28;20229;-81
2022/09/24 11:29:06;;;;;;;0.40;0.40;;;;;;;;;;5034323;28;20263;-81
2022/09/24 11:31:37;;;;;;;0.40;0.40;;;;;;;;;;5051896;28;20201;-81
2022/09/24 11:34:18;;;;;;;0.30;0.30;;;;;;;;;;5056462;28;20206;-81
2022/09/24 11:36:52;;;;;;;0.40;0.40;;;;;;;;;;5023268;28;20194;-81
2022/09/24 11:39:27;;;;;;;0.40;0.40;;;;;;;;;;5050253;28;20260;-81
2022/09/24 11:42:02;;;;;;;0.40;0.40;;;;;;;;;;5053557;28;20646;-81
2022/09/24 11:44:49;;;;;;;0.37;0.37;;;;;;;;;;5057790;28;20284;-82
2022/09/24 11:47:25;;;;;;;0.40;0.40;;;;;;;;;;5059169;28;20214;-82
2022/09/24 11:50:02;;;;;;;0.40;0.40;;;;;;;;;;5069035;28;20266;-82
2022/09/24 11:52:33;;;;;;;0.33;0.33;;;;;;;;;;5046766;28;20285;-82
2022/09/24 11:55:05;;;;;;;0.40;0.40;;;;;;;;;;5045563;28;20224;-82
2022/09/24 11:57:38;;;;;;;1.23;0.83;;;;;;;;;;5038658;28;20228;-82
2022/09/24 12:00:08;;;;;;;6.37;1.67;;;;;;;;;;5067786;28;20202;-82
2022/09/24 12:02:38;;;;;;;2.83;1.40;;;;;;;;;;5034000;28;20214;-81
2022/09/24 12:05:08;;;;;;;0.70;0.70;;;;;;;;;;5032045;28;20221;-81
2022/09/24 12:07:39;;;;;;;1.40;1.07;;;;;;;;;;5038227;28;20254;-81
2022/09/24 12:10:24;;;;;;;3.10;0.80;;;;;;;;;;5049025;28;20237;-81
2022/09/24 12:12:58;;;;;;;1.43;1.30;;;;;;;;;;5041550;28;20296;-81
2022/09/24 12:15:30;;;;;;;1.97;0.83;;;;;;;;;;5033824;28;20297;-81
2022/09/24 12:18:02;;;;;;;0.93;0.80;;;;;;;;;;5033750;28;20222;-81
2022/09/24 12:20:31;;;;;;;5.27;1.30;;;;;;;;;;5026444;28;20199;-82
2022/09/24 12:23:02;;;;;;;0.60;0.60;;;;;;;;;;5029024;28;20224;-83
2022/09/24 12:25:33;;;;;;;1.63;0.80;;;;;;;;;;5027504;28;20254;-83
2022/09/24 12:28:03;;;;;;;2.80;1.40;;;;;;;;;;5021080;28;20194;-83
2022/09/24 12:33:25;;;;;;;3.57;1.57;;;;;;;;;;5025213;28;20279;-83
2022/09/24 12:35:57;;;;;;;5.23;1.20;;;;;;;;;;5032333;28;20239;-83
2022/09/24 12:38:29;;;;;;;0.73;0.73;;;;;;;;;;5048216;28;20194;-83
2022/09/24 12:41:09;;;;;;;1.10;0.50;;;;;;;;;;5036200;28;20218;-83
2022/09/24 12:43:41;;;;;;;1.07;1.00;;;;;;;;;;5032708;28;20270;-83
2022/09/24 12:46:15;;;;;;;1.43;1.00;;;;;;;;;;5027704;28;20194;-83
2022/09/24 12:48:44;;;;;;;1.60;0.90;;;;;;;;;;5040114;28;20303;-83
2022/09/24 12:51:13;;;;;;;3.87;1.23;;;;;;;;;;5026210;28;20318;-82
2022/09/24 12:53:42;;;;;;;2.47;0.90;;;;;;;;;;5032035;28;20222;-83
2022/09/24 12:56:11;;;;;;;3.27;1.30;;;;;;;;;;5040950;28;20201;-82
2022/09/24 12:58:42;;;;;;;0.70;0.70;;;;;;;;;;5027427;28;20197;-83
2022/09/24 13:01:15;;;;;;;0.93;0.70;;;;;;;;;;5020971;28;20325;-83
2022/09/24 13:03:43;;;;;;;2.30;1.17;;;;;;;;;;5033651;28;20237;-83
2022/09/24 13:06:22;;;;;;;8.37;1.33;;;;;;;;;;5025844;28;20202;-83
2022/09/24 13:08:50;;;;;;;0.63;0.63;;;;;;;;;;5030340;28;20196;-83
2022/09/24 13:11:28;;;;;;;0.83;0.83;;;;;;;;;;5023935;28;20206;-83
2022/09/24 13:14:02;;;;;;;0.97;0.90;;;;;;;;;;5018604;28;20199;-83
2022/09/24 13:16:31;;;;;;;1.63;0.93;;;;;;;;;;5026212;28;20205;-83
2022/09/24 13:19:01;;;;;;;0.63;0.50;;;;;;;;;;5026180;28;20281;-83
2022/09/24 13:21:30;;;;;;;1.80;0.90;;;;;;;;;;5023414;28;20195;-83
2022/09/24 13:23:58;;;;;;;1.43;1.27;;;;;;;;;;5018450;28;20294;-84
2022/09/24 13:26:29;;;;;;;2.30;2.10;;;;;;;;;;5023878;28;20207;-83
2022/09/24 13:28:59;;;;;;;2.20;0.80;;;;;;;;;;5017627;28;20203;-83
2022/09/24 13:31:40;;;;;;;0.53;0.50;;;;;;;;;;5019121;28;20203;-83
2022/09/24 13:34:18;;;;;;;1.70;0.60;;;;;;;;;;5024695;28;20202;-83
2022/09/24 13:36:49;;;;;;;1.17;1.07;;;;;;;;;;5029251;28;20289;-82
2022/09/24 13:39:23;;;;;;;1.93;1.10;;;;;;;;;;5023007;28;20229;-83
2022/09/24 13:41:57;;;;;;;1.30;0.93;;;;;;;;;;5026921;28;20206;-84
2022/09/24 13:44:28;;;;;;;2.23;0.93;;;;;;;;;;5026073;28;20222;-83
2022/09/24 13:47:00;;;;;;;1.37;1.27;;;;;;;;;;5021553;28;20206;-83
2022/09/24 13:49:30;;;;;;;6.07;1.50;;;;;;;;;;5025380;28;20203;-83
2022/09/24 13:52:06;;;;;;;2.53;1.00;;;;;;;;;;5028206;28;20206;-83
2022/09/24 13:54:36;;;;;;;1.80;0.97;;;;;;;;;;5033095;28;20209;-83
2022/09/24 13:57:10;;;;;;;0.90;0.80;;;;;;;;;;5046162;28;20225;-83
2022/09/24 13:59:38;;;;;;;3.13;1.27;;;;;;;;;;5028232;28;20206;-83
2022/09/24 14:02:22;;;;;;;3.07;1.07;;;;;;;;;;5023937;28;20315;-83
2022/09/24 14:04:54;;;;;;;1.37;0.77;;;;;;;;;;5027434;28;20253;-84
2022/09/24 14:07:23;;;;;;;1.33;1.00;;;;;;;;;;5033589;28;20211;-83
2022/09/24 14:10:02;;;;;;;4.87;0.93;;;;;;;;;;5042996;28;20242;-83
2022/09/24 14:12:30;;;;;;;1.30;1.20;;;;;;;;;;5025738;28;20260;-83
2022/09/24 14:14:59;;;;;;;0.40;0.40;;;;;;;;;;5030318;28;20229;-83
2022/09/24 14:17:28;;;;;;;0.60;0.60;;;;;;;;;;5063144;28;20206;-83
2022/09/24 14:19:59;;;;;;;1.20;0.83;;;;;;;;;;5038716;28;20234;-83
2022/09/24 14:22:31;;;;;;;1.00;0.90;;;;;;;;;;5034779;28;20230;-84
2022/09/24 14:25:01;;;;;;;0.60;0.60;;;;;;;;;;5052939;28;20260;-84
2022/09/24 14:27:31;;;;;;;1.43;1.33;;;;;;;;;;5055166;28;20212;-83
2022/09/24 14:30:01;;;;;;;0.93;0.93;;;;;;;;;;5029724;28;20199;-83
2022/09/24 14:32:32;;;;;;;3.90;1.27;;;;;;;;;;5070501;28;20252;-83
2022/09/24 14:35:01;;;;;;;3.63;1.17;;;;;;;;;;5045923;28;20285;-83
2022/09/24 14:37:31;;;;;;;1.50;0.77;;;;;;;;;;5034288;28;20293;-83
2022/09/24 14:40:03;;;;;;;0.67;0.67;;;;;;;;;;5034051;28;20293;-83
2022/09/24 14:42:33;;;;;;;1.67;1.20;;;;;;;;;;5034015;28;20216;-83
2022/09/24 14:45:03;;;;;;;1.60;0.97;;;;;;;;;;5034725;28;20229;-83
2022/09/24 14:47:38;;;;;;;4.20;1.13;;;;;;;;;;5025847;28;20194;-83
2022/09/24 14:50:21;;;;;;;1.40;0.97;;;;;;;;;;5025112;28;20210;-81
2022/09/24 14:52:55;;;;;;;1.90;1.40;;;;;;;;;;5020584;28;20210;-81
2022/09/24 14:55:36;;;;;;;0.83;0.83;;;;;;;;;;5023270;28;20204;-81
2022/09/24 14:58:06;;;;;;;0.70;0.70;;;;;;;;;;5022799;28;20256;-80
2022/09/24 15:00:37;;;;;;;2.87;1.00;;;;;;;;;;5027490;28;20231;-81
2022/09/24 15:03:12;;;;;;;4.07;0.83;;;;;;;;;;5027755;28;20237;-82
2022/09/24 15:05:40;;;;;;;0.40;0.40;;;;;;;;;;5026667;28;20229;-81
2022/09/24 15:08:20;;;;;;;3.73;0.50;;;;;;;;;;5027359;28;20195;-81
2022/09/24 15:10:55;;;;;;;0.60;0.60;;;;;;;;;;5023898;28;20195;-82
2022/09/24 15:13:24;;;;;;;0.40;0.40;;;;;;;;;;5032339;28;20269;-80
2022/09/24 15:16:06;;;;;;;0.70;0.70;;;;;;;;;;5024319;28;20288;-83
2022/09/24 15:18:39;;;;;;;2.43;1.47;;;;;;;;;;5027497;28;20209;-83